Time;durP1;ratioP1;P1;durP2;ratioP2;P2;SDS_P1;SDS_P2;PMS_P1;PMS_P2;Temp;Humidity;BMP_temperature;BMP_pressure;BME280_temperature;BME280_humidity;BME280_pressure;Samples;Min_cycle;Max_cycle;Signal;HPM_P1;HPM_P2
2021/04/01 00:01:27;;;;;;;26.40;16.77;;;14.30;82.70;;;;;;5031362;28;20504;-89
2021/04/01 00:03:59;;;;;;;24.17;16.17;;;14.40;82.90;;;;;;5032049;28;20079;-88
2021/04/01 00:06:26;;;;;;;27.42;16.23;;;14.40;82.90;;;;;;5046222;28;20122;-88
2021/04/01 00:08:55;;;;;;;25.80;15.23;;;14.40;83.20;;;;;;5035078;28;20047;-89
2021/04/01 00:11:21;;;;;;;28.00;16.88;;;14.30;83.40;;;;;;5046527;28;20051;-88
2021/04/01 00:13:50;;;;;;;26.27;16.75;;;14.30;83.60;;;;;;5050858;28;20720;-88
2021/04/01 00:16:20;;;;;;;30.42;18.88;;;14.30;83.80;;;;;;5046681;28;20041;-89
2021/04/01 00:18:49;;;;;;;30.33;18.92;;;14.20;84.10;;;;;;5046829;28;20055;-88
2021/04/01 00:21:18;;;;;;;32.08;18.25;;;14.20;84.10;;;;;;5050828;28;20037;-89
2021/04/01 00:23:45;;;;;;;28.52;18.00;;;14.20;84.20;;;;;;5050854;28;20029;-88
2021/04/01 00:26:14;;;;;;;27.52;17.02;;;14.20;84.30;;;;;;5032454;28;20041;-89
2021/04/01 00:28:40;;;;;;;27.33;17.00;;;14.30;84.40;;;;;;5049988;28;20045;-89
2021/04/01 00:31:06;;;;;;;29.88;17.00;;;14.30;84.40;;;;;;5019937;28;20131;-89
2021/04/01 00:33:36;;;;;;;30.38;17.83;;;14.30;84.60;;;;;;5044885;28;20128;-89
2021/04/01 00:36:07;;;;;;;29.50;17.77;;;14.30;84.80;;;;;;5044332;28;20051;-89
2021/04/01 00:38:33;;;;;;;28.88;18.58;;;14.30;85.10;;;;;;5036845;28;20079;-89
2021/04/01 00:41:06;;;;;;;28.42;17.60;;;14.20;85.40;;;;;;5051898;28;20377;-89
2021/04/01 00:43:33;;;;;;;;;;;14.20;85.70;;;;;;5039982;28;20041;-90
2021/04/01 00:46:01;;;;;;;25.38;14.95;;;14.10;85.60;;;;;;5059327;28;19995;-90
2021/04/01 00:48:27;;;;;;;24.85;15.88;;;14.20;85.90;;;;;;5064824;28;20051;-91
2021/04/01 00:50:53;;;;;;;26.13;16.50;;;14.30;85.80;;;;;;5034443;28;20060;-89
2021/04/01 00:53:19;;;;;;;29.52;16.13;;;14.20;86.00;;;;;;5038188;28;20498;-91
2021/04/01 00:55:48;;;;;;;27.67;17.40;;;14.20;86.20;;;;;;5043977;28;20029;-89
2021/04/01 00:58:15;;;;;;;27.00;16.85;;;14.20;86.40;;;;;;5045605;28;20032;-90
2021/04/01 01:00:48;;;;;;;28.75;17.17;;;14.30;86.60;;;;;;5035379;28;20079;-91
2021/04/01 01:03:15;;;;;;;27.48;17.60;;;14.20;86.70;;;;;;5048160;28;20072;-90
2021/04/01 01:05:46;;;;;;;25.73;16.48;;;14.20;86.90;;;;;;5040951;28;20389;-89
2021/04/01 01:08:12;;;;;;;24.17;15.18;;;14.20;87.00;;;;;;5052533;28;20040;-88
2021/04/01 01:10:41;;;;;;;27.50;17.05;;;14.20;87.20;;;;;;5019486;28;20044;-90
2021/04/01 01:13:09;;;;;;;26.55;16.30;;;14.20;87.30;;;;;;5019598;28;20040;-89
2021/04/01 01:15:40;;;;;;;26.00;16.73;;;14.20;87.80;;;;;;5063245;28;20037;-89
2021/04/01 01:18:06;;;;;;;28.10;16.95;;;14.20;87.80;;;;;;5063049;28;20033;-89
2021/04/01 01:20:32;;;;;;;25.42;16.63;;;14.10;88.20;;;;;;5070589;28;20044;-89
2021/04/01 01:23:04;;;;;;;25.85;15.18;;;14.10;88.60;;;;;;5052429;28;20078;-90
2021/04/01 01:25:30;;;;;;;26.13;16.88;;;14.00;88.70;;;;;;5052717;28;20052;-89
2021/04/01 01:27:57;;;;;;;27.85;17.52;;;14.10;89.20;;;;;;5052414;28;20048;-88
2021/04/01 01:30:23;;;;;;;27.50;16.73;;;14.10;90.00;;;;;;5046740;28;20040;-89
2021/04/01 01:32:57;;;;;;;27.35;17.10;;;14.10;90.00;;;;;;5036421;28;20044;-90
2021/04/01 01:35:29;;;;;;;29.05;18.48;;;14.00;90.00;;;;;;5036904;28;20083;-89
2021/04/01 01:37:59;;;;;;;35.13;22.13;;;13.90;90.20;;;;;;5036382;28;20028;-90
2021/04/01 01:40:28;;;;;;;36.72;20.70;;;13.90;90.40;;;;;;5036497;28;20542;-90
2021/04/01 01:43:00;;;;;;;29.05;17.73;;;13.80;90.50;;;;;;5035495;28;20036;-89
2021/04/01 01:45:32;;;;;;;30.88;18.63;;;13.70;90.60;;;;;;5036416;28;20028;-91
2021/04/01 01:48:02;;;;;;;26.00;16.45;;;13.80;90.70;;;;;;5036315;28;20081;-91
2021/04/01 01:50:32;;;;;;;24.58;15.35;;;13.80;90.70;;;;;;5054488;28;20052;-91
2021/04/01 01:53:02;;;;;;;29.25;17.42;;;13.80;90.90;;;;;;5035961;28;20068;-90
2021/04/01 01:55:43;;;;;;;28.77;18.02;;;13.80;91.00;;;;;;5035204;28;20053;-90
2021/04/01 01:58:23;;;;;;;30.73;18.65;;;13.70;91.40;;;;;;5035857;28;20067;-92
2021/04/01 02:00:58;;;;;;;34.25;21.92;;;13.80;91.80;;;;;;5053514;28;20474;-91
2021/04/01 02:03:31;;;;;;;32.25;19.48;;;13.70;92.80;;;;;;5053197;28;20120;-90
2021/04/01 02:06:06;;;;;;;38.85;23.40;;;13.80;92.80;;;;;;5035615;28;20049;-91
2021/04/01 02:08:32;;;;;;;37.53;22.92;;;13.70;92.90;;;;;;5036264;28;20041;-91
2021/04/01 02:11:03;;;;;;;38.42;22.67;;;13.70;93.30;;;;;;5036085;28;20373;-91
2021/04/01 02:13:35;;;;;;;35.17;21.00;;;13.70;93.30;;;;;;5057171;28;20477;-90
2021/04/01 02:16:04;;;;;;;38.58;23.55;;;13.70;92.90;;;;;;5040060;28;20469;-91
2021/04/01 02:18:31;;;;;;;38.88;22.48;;;13.70;93.20;;;;;;5039521;28;20033;-90
2021/04/01 02:21:09;;;;;;;35.63;21.58;;;13.60;93.20;;;;;;5058030;28;20033;-91
2021/04/01 02:23:39;;;;;;;34.97;20.77;;;13.70;93.30;;;;;;5040197;28;20040;-90
2021/04/01 02:26:07;;;;;;;32.70;19.08;;;13.70;93.10;;;;;;5040315;28;20094;-91
2021/04/01 02:28:39;;;;;;;35.03;21.23;;;13.70;93.10;;;;;;5040243;28;20037;-92
2021/04/01 02:31:08;;;;;;;33.85;20.73;;;13.60;92.90;;;;;;5040413;28;20124;-91
2021/04/01 02:33:37;;;;;;;33.08;20.63;;;13.60;92.90;;;;;;5039871;28;20119;-90
2021/04/01 02:36:08;;;;;;;34.47;20.23;;;13.50;92.90;;;;;;5039705;28;20127;-90
2021/04/01 02:38:36;;;;;;;37.00;20.63;;;13.50;92.90;;;;;;5040107;28;20033;-90
2021/04/01 02:41:07;;;;;;;31.88;19.33;;;13.50;92.90;;;;;;5056961;28;20045;-91
2021/04/01 02:43:36;;;;;;;33.90;20.45;;;13.50;93.00;;;;;;5040168;28;20087;-91
2021/04/01 02:46:18;;;;;;;;;;;;;;;;;;;;;
2021/04/01 02:48:44;;;;;;;33.88;20.27;;;13.40;93.20;;;;;;5056804;28;20037;-91
2021/04/01 02:51:10;;;;;;;36.70;21.23;;;13.30;93.30;;;;;;5039557;28;20041;-91
2021/04/01 02:53:38;;;;;;;34.60;21.42;;;13.20;93.20;;;;;;5039722;28;20373;-90
2021/04/01 02:56:07;;;;;;;38.25;23.10;;;13.20;93.20;;;;;;5039102;28;20041;-91
2021/04/01 02:58:34;;;;;;;37.50;22.25;;;13.10;93.20;;;;;;5039599;28;20082;-90
2021/04/01 03:01:06;;;;;;;38.90;23.08;;;13.10;93.30;;;;;;5057475;28;20075;-91
2021/04/01 03:03:41;;;;;;;35.45;21.15;;;13.10;93.40;;;;;;5039637;28;20051;-91
2021/04/01 03:06:13;;;;;;;39.13;23.25;;;13.10;93.50;;;;;;5056713;28;20052;-90
2021/04/01 03:08:39;;;;;;;39.63;22.63;;;13.10;93.50;;;;;;5039231;28;20079;-90
2021/04/01 03:11:12;;;;;;;38.13;20.92;;;13.10;93.40;;;;;;5023190;28;20044;-89
2021/04/01 03:13:41;;;;;;;35.33;21.50;;;13.10;93.50;;;;;;5039154;28;20029;-91
2021/04/01 03:16:09;;;;;;;33.85;20.98;;;13.00;93.40;;;;;;5023447;28;20461;-91
2021/04/01 03:18:38;;;;;;;35.65;20.35;;;13.10;93.50;;;;;;5022421;28;20400;-91
2021/04/01 03:21:14;;;;;;;;;;;;;;;;;;;;;
2021/04/01 03:23:45;;;;;;;33.22;20.48;;;12.90;93.60;;;;;;5055929;28;20039;-91
2021/04/01 03:26:19;;;;;;;39.22;23.58;;;12.90;93.70;;;;;;5039225;28;20500;-91
2021/04/01 03:29:02;;;;;;;37.33;21.83;;;12.80;93.70;;;;;;5039015;28;20037;-90
2021/04/01 03:31:31;;;;;;;33.45;20.38;;;12.80;93.70;;;;;;5024375;28;20109;-91
2021/04/01 03:34:12;;;;;;;33.67;20.45;;;12.70;93.70;;;;;;5057075;28;20037;-91
2021/04/01 03:36:45;;;;;;;35.67;20.40;;;12.70;93.70;;;;;;5038752;28;20041;-92
2021/04/01 03:39:14;;;;;;;35.63;20.27;;;12.70;94.00;;;;;;5023350;28;20543;-91
2021/04/01 03:42:22;;;;;;;35.47;19.73;;;12.60;93.70;;;;;;5038936;28;20068;-91
2021/04/01 03:44:53;;;;;;;35.13;19.85;;;12.60;93.70;;;;;;5055564;28;20091;-92
2021/04/01 03:47:20;;;;;;;35.00;19.75;;;12.60;93.80;;;;;;5038883;28;20119;-91
2021/04/01 03:49:55;;;;;;;38.28;20.15;;;12.60;93.80;;;;;;5038703;28;20033;-91
2021/04/01 03:52:22;;;;;;;34.83;19.65;;;12.50;93.80;;;;;;5056559;28;20532;-91
2021/04/01 03:54:51;;;;;;;35.17;19.05;;;12.50;93.80;;;;;;5038437;28;20450;-90
2021/04/01 03:57:19;;;;;;;34.05;18.73;;;12.50;93.90;;;;;;5038768;28;20120;-90
2021/04/01 04:00:10;;;;;;;34.75;19.25;;;12.50;93.90;;;;;;5037831;28;20394;-91
2021/04/01 04:09:04;;;;;;;32.25;18.42;;;12.40;94.00;;;;;;5056057;28;20040;-90
2021/04/01 04:14:21;;;;;;;35.58;19.23;;;12.30;94.00;;;;;;5055856;28;20029;-91
2021/04/01 04:17:08;;;;;;;34.30;18.73;;;12.20;94.00;;;;;;5038301;28;20086;-91
2021/04/01 04:19:43;;;;;;;34.13;19.02;;;12.20;94.10;;;;;;5037651;28;20037;-91
2021/04/01 04:22:29;;;;;;;33.70;18.48;;;12.20;94.30;;;;;;5055415;28;20033;-91
2021/04/01 04:24:59;;;;;;;32.75;18.70;;;12.10;94.40;;;;;;5023010;28;20115;-91
2021/04/01 04:30:25;;;;;;;;;;;;;;;;;;;;;
2021/04/01 04:32:58;;;;;;;35.05;19.20;;;12.00;94.40;;;;;;5055652;28;20037;-91
2021/04/01 04:35:40;;;;;;;35.75;20.23;;;12.00;94.50;;;;;;5036748;28;20047;-91
2021/04/01 04:38:14;;;;;;;33.78;19.60;;;11.90;94.50;;;;;;5037549;28;20464;-91
2021/04/01 04:40:47;;;;;;;33.78;18.90;;;11.80;94.60;;;;;;5037077;28;20091;-91
2021/04/01 04:43:23;;;;;;;35.20;19.40;;;11.70;94.70;;;;;;5037502;28;20393;-90
2021/04/01 04:46:00;;;;;;;35.53;19.67;;;11.70;94.80;;;;;;5037161;28;20465;-90
2021/04/01 04:48:49;;;;;;;;;;;;;;;;;;;;;
2021/04/01 04:51:27;;;;;;;33.53;19.48;;;11.50;95.10;;;;;;5054756;28;20035;-91
2021/04/01 04:54:20;;;;;;;33.13;19.02;;;11.50;95.10;;;;;;5037065;28;20480;-91
2021/04/01 04:57:00;;;;;;;32.40;18.98;;;11.50;95.10;;;;;;5020644;28;20045;-91
2021/04/01 05:00:35;;;;;;;;;;;;;;;;;;;;;
2021/04/01 05:05:21;;;;;;;33.50;18.67;;;11.40;95.30;;;;;;5054214;28;20117;-90
2021/04/01 05:07:53;;;;;;;31.83;18.17;;;11.40;95.30;;;;;;5036390;28;20092;-91
2021/04/01 05:10:35;;;;;;;31.52;18.75;;;11.40;95.40;;;;;;5036722;28;20411;-90
2021/04/01 05:13:16;;;;;;;32.33;19.17;;;11.40;95.40;;;;;;5036500;28;20511;-91
2021/04/01 05:19:12;;;;;;;32.72;19.63;;;11.30;95.50;;;;;;5025892;28;20114;-92
2021/04/01 05:23:24;;;;;;;33.13;18.63;;;11.30;95.70;;;;;;5068360;28;20074;-91
2021/04/01 05:25:01;;;;;;;31.88;17.77;;;11.30;95.70;;;;;;4995708;28;20171;-91
2021/04/01 05:28:16;;;;;;;;;;;;;;;;;;;;;
2021/04/01 05:31:34;;;;;;;32.38;17.83;;;11.20;95.70;;;;;;5040813;28;20028;-91
2021/04/01 05:34:24;;;;;;;33.08;18.15;;;11.20;95.80;;;;;;5052617;28;20033;-92
2021/04/01 05:41:07;;;;;;;30.05;17.55;;;11.10;95.90;;;;;;5026864;28;20025;-91
2021/04/01 06:05:34;;;;;;;38.78;20.15;;;11.00;96.50;;;;;;4981013;28;20171;-91
2021/04/01 06:08:31;;;;;;;37.00;21.17;;;11.00;96.60;;;;;;4966971;28;20530;-91
2021/04/01 06:12:13;;;;;;;;;;;;;;;;;;;;;
2021/04/01 06:15:09;;;;;;;;;;;;;;;;;;;;;
2021/04/01 06:22:17;;;;;;;38.88;20.92;;;11.40;96.40;;;;;;4807306;29;20034;-91
2021/04/01 07:04:31;;;;;;;54.08;30.23;;;12.30;95.70;;;;;;4790012;30;20034;-91
2021/04/01 08:39:34;;;;;;;59.97;35.65;;;14.80;94.00;;;;;;4997609;28;20054;-92
2021/04/01 09:01:18;;;;;;;;;;;;;;;;;;;;;
2021/04/01 09:07:24;;;;;;;74.63;43.55;;;15.80;90.60;;;;;;4902780;29;20210;-92
2021/04/01 09:14:44;;;;;;;;;;;;;;;;;;;;;
2021/04/01 09:50:20;;;;;;;61.17;38.03;;;18.30;84.60;;;;;;4787544;29;20130;-91
2021/04/01 10:33:36;;;;;;;33.58;22.30;;;23.50;67.00;;;;;;5091405;28;20371;-86
2021/04/01 10:36:06;;;;;;;27.23;18.30;;;24.00;64.90;;;;;;5090108;28;20024;-88
2021/04/01 10:38:35;;;;;;;26.15;17.45;;;24.20;65.00;;;;;;5085510;28;20020;-83
2021/04/01 10:41:10;;;;;;;27.00;17.92;;;24.50;63.90;;;;;;5087986;28;20072;-84
2021/04/01 10:43:39;;;;;;;25.55;17.42;;;24.50;62.70;;;;;;5087004;28;20107;-86
2021/04/01 10:46:06;;;;;;;21.02;14.13;;;24.50;62.30;;;;;;5088325;28;20034;-82
2021/04/01 10:48:36;;;;;;;17.50;12.90;;;24.60;62.50;;;;;;5086396;28;20381;-84
2021/04/01 10:51:04;;;;;;;17.33;9.80;;;24.80;61.60;;;;;;5086370;28;20078;-85
2021/04/01 10:53:31;;;;;;;16.15;9.90;;;24.90;60.90;;;;;;5087395;28;20028;-84
2021/04/01 10:56:05;;;;;;;13.23;8.52;;;24.90;59.40;;;;;;5087247;28;20437;-84
2021/04/01 10:58:31;;;;;;;13.80;7.60;;;24.90;59.20;;;;;;5087464;28;20102;-84
2021/04/01 11:00:59;;;;;;;11.68;6.75;;;24.90;59.10;;;;;;5089502;28;20032;-85
2021/04/01 11:03:28;;;;;;;10.63;5.85;;;24.90;59.10;;;;;;5087846;28;20074;-82
2021/04/01 11:05:55;;;;;;;10.60;5.03;;;25.00;58.40;;;;;;5088961;28;20028;-85
2021/04/01 11:08:24;;;;;;;10.25;5.93;;;25.10;58.60;;;;;;5088781;28;20028;-86
2021/04/01 11:11:00;;;;;;;8.43;4.68;;;25.20;57.60;;;;;;5089686;28;20020;-85
2021/04/01 11:13:52;;;;;;;10.32;4.75;;;25.20;57.10;;;;;;5088424;28;20069;-86
2021/04/01 11:16:20;;;;;;;8.25;4.15;;;25.30;57.00;;;;;;5087046;28;20041;-85
2021/04/01 11:18:48;;;;;;;7.50;3.22;;;25.30;57.50;;;;;;5088834;28;20031;-86
2021/04/01 11:21:15;;;;;;;6.97;3.20;;;25.70;57.50;;;;;;5085473;28;20019;-86
2021/04/01 11:23:41;;;;;;;7.72;3.65;;;26.20;57.30;;;;;;5084674;28;20093;-89
2021/04/01 11:26:07;;;;;;;7.38;3.63;;;26.40;56.60;;;;;;5089689;28;20107;-86
2021/04/01 11:28:35;;;;;;;7.32;3.53;;;26.30;55.90;;;;;;5088772;28;20504;-84
2021/04/01 11:31:01;;;;;;;8.07;3.22;;;26.20;55.30;;;;;;5087019;28;20036;-85
2021/04/01 11:33:30;;;;;;;7.28;3.45;;;26.20;55.40;;;;;;5089262;28;20478;-88
2021/04/01 11:38:57;;;;;;;6.90;2.83;;;26.20;55.10;;;;;;5089986;28;20029;-89
2021/04/01 11:41:27;;;;;;;6.85;2.30;;;26.30;55.20;;;;;;5089846;28;20017;-88
2021/04/01 11:43:55;;;;;;;6.47;2.40;;;26.50;55.00;;;;;;5079472;28;20028;-87
2021/04/01 11:46:27;;;;;;;6.03;2.70;;;26.30;54.30;;;;;;5075967;28;20081;-87
2021/04/01 11:48:55;;;;;;;5.88;2.15;;;26.30;54.60;;;;;;5075984;28;20024;-87
2021/04/01 11:51:22;;;;;;;6.00;1.90;;;26.00;54.10;;;;;;5074707;28;20508;-88
2021/04/01 11:53:49;;;;;;;5.53;2.38;;;25.80;54.50;;;;;;5074520;28;20032;-85
2021/04/01 11:56:19;;;;;;;8.52;2.05;;;25.60;54.60;;;;;;5074113;28;20032;-88
2021/04/01 11:58:45;;;;;;;6.30;1.83;;;25.70;54.70;;;;;;5074804;28;20021;-88
2021/04/01 12:01:19;;;;;;;6.97;2.40;;;25.90;54.60;;;;;;5074688;28;20043;-88
2021/04/01 12:03:53;;;;;;;6.13;2.13;;;25.80;54.00;;;;;;5077872;28;20021;-85
2021/04/01 12:06:22;;;;;;;5.40;1.88;;;25.50;54.40;;;;;;5075711;28;20035;-87
2021/04/01 12:08:48;;;;;;;6.93;2.08;;;25.60;54.40;;;;;;5075571;28;20040;-86
2021/04/01 12:11:14;;;;;;;4.25;1.80;;;25.70;54.60;;;;;;5075326;28;20024;-88
2021/04/01 12:13:40;;;;;;;5.18;1.83;;;25.70;54.10;;;;;;5074527;28;20394;-88
2021/04/01 12:16:15;;;;;;;5.78;1.55;;;25.30;54.10;;;;;;5074248;28;20091;-88
2021/04/01 12:18:42;;;;;;;5.88;1.67;;;25.00;54.60;;;;;;5075605;28;20182;-87
2021/04/01 12:21:08;;;;;;;7.32;1.70;;;24.90;55.50;;;;;;5074770;28;20044;-87
2021/04/01 12:23:49;;;;;;;4.55;1.55;;;25.10;56.00;;;;;;5073648;28;20044;-87
2021/04/01 12:26:15;;;;;;;7.00;1.50;;;25.40;55.00;;;;;;5074544;28;20099;-87
2021/04/01 12:28:42;;;;;;;6.00;1.58;;;25.70;55.00;;;;;;5074455;28;20024;-87
2021/04/01 12:31:15;;;;;;;7.28;1.80;;;26.00;55.30;;;;;;5064575;28;20044;-87
2021/04/01 12:33:51;;;;;;;5.72;1.50;;;26.30;54.00;;;;;;5061677;28;20013;-89
2021/04/01 12:36:32;;;;;;;8.43;2.25;;;26.40;53.80;;;;;;5069983;28;20482;-86
2021/04/01 12:38:58;;;;;;;8.05;1.80;;;26.20;53.50;;;;;;5079960;28;20036;-85
2021/04/01 12:41:27;;;;;;;5.78;1.75;;;25.90;53.60;;;;;;5056270;28;20668;-85
2021/04/01 12:43:53;;;;;;;8.38;1.77;;;25.60;53.60;;;;;;5077708;28;20032;-86
2021/04/01 12:46:19;;;;;;;6.18;1.88;;;25.50;53.80;;;;;;5078583;28;20031;-87
2021/04/01 12:48:48;;;;;;;6.80;1.73;;;25.20;54.40;;;;;;5070523;28;20470;-85
2021/04/01 12:51:19;;;;;;;6.45;1.73;;;25.00;54.80;;;;;;5069163;28;20174;-86
2021/04/01 12:54:02;;;;;;;5.10;1.55;;;24.80;54.80;;;;;;5070054;28;20023;-89
2021/04/01 12:56:32;;;;;;;;;;;24.70;54.80;;;;;;5067199;28;20041;-86
2021/04/01 12:59:17;;;;;;;4.57;1.60;;;24.60;55.10;;;;;;5070522;28;19912;-88
2021/04/01 13:01:46;;;;;;;5.95;1.38;;;24.90;55.40;;;;;;5062962;28;20037;-89
2021/04/01 13:04:15;;;;;;;6.40;1.85;;;25.10;54.90;;;;;;5076010;28;20586;-90
2021/04/01 13:11:41;;;;;;;4.63;1.60;;;25.70;53.90;;;;;;5066945;28;20781;-86
2021/04/01 13:14:19;;;;;;;6.75;2.03;;;25.40;53.90;;;;;;5067851;28;20174;-92
2021/04/01 13:17:04;;;;;;;4.47;1.38;;;25.40;54.90;;;;;;5186724;23;20013;-86
2021/04/01 13:19:30;;;;;;;5.97;1.58;;;25.40;54.70;;;;;;5029841;23;20053;-92
2021/04/01 13:26:57;;;;;;;3.55;1.10;;;25.60;54.00;;;;;;5030371;28;20065;-89
2021/04/01 13:29:26;;;;;;;2.65;0.95;;;25.50;54.10;;;;;;5020059;28;20067;-85
2021/04/01 13:32:09;;;;;;;6.18;1.50;;;25.30;53.70;;;;;;5028921;28;20037;-88
2021/04/01 13:34:40;;;;;;;4.05;1.13;;;25.40;54.20;;;;;;5011859;28;20037;-89
2021/04/01 13:37:19;;;;;;;3.60;1.05;;;25.50;54.20;;;;;;5011591;28;20063;-89
2021/04/01 13:39:51;;;;;;;3.95;1.17;;;25.30;53.10;;;;;;5011104;28;21401;-91
2021/04/01 13:42:26;;;;;;;4.03;1.10;;;25.10;53.50;;;;;;5009164;28;20534;-89
2021/04/01 13:44:54;;;;;;;4.82;1.17;;;25.00;53.20;;;;;;4991481;28;20468;-86
2021/04/01 13:47:22;;;;;;;3.42;0.68;;;24.50;53.60;;;;;;4997635;28;20026;-89
2021/04/01 13:49:52;;;;;;;4.35;1.20;;;24.30;54.30;;;;;;5037508;23;20050;-89
2021/04/01 13:52:34;;;;;;;4.10;1.00;;;24.50;54.10;;;;;;4991733;28;20072;-87
2021/04/01 14:09:10;;;;;;;4.72;0.98;;;24.30;52.50;;;;;;5002482;28;20036;-87
2021/04/01 14:11:37;;;;;;;4.88;1.10;;;24.10;52.10;;;;;;4988267;28;20034;-83
2021/04/01 14:14:06;;;;;;;3.83;1.20;;;23.90;52.50;;;;;;4991714;28;20022;-87
2021/04/01 14:16:34;;;;;;;4.45;1.30;;;24.00;52.30;;;;;;5014738;28;20030;-86
2021/04/01 14:19:02;;;;;;;3.30;1.08;;;23.90;52.00;;;;;;4989985;28;20120;-89
2021/04/01 14:21:27;;;;;;;3.60;1.10;;;23.70;51.70;;;;;;4989389;28;20791;-88
2021/04/01 14:23:54;;;;;;;5.28;1.25;;;23.40;52.50;;;;;;5007321;28;20030;-87
2021/04/01 14:28:50;;;;;;;7.95;1.30;;;23.00;52.70;;;;;;5007667;28;20037;-84
2021/04/01 14:31:19;;;;;;;5.18;1.38;;;22.90;52.50;;;;;;4987731;28;20522;-86
2021/04/01 14:33:46;;;;;;;3.58;1.02;;;23.00;52.20;;;;;;4989761;28;20081;-85
2021/04/01 14:36:14;;;;;;;4.80;1.33;;;22.90;52.10;;;;;;5003870;28;20483;-85
2021/04/01 14:38:41;;;;;;;4.45;0.90;;;22.90;51.50;;;;;;4991011;28;20033;-86
2021/04/01 14:41:20;;;;;;;4.70;1.20;;;22.70;50.70;;;;;;5014924;28;20075;-86
2021/04/01 14:46:29;;;;;;;8.20;2.13;;;22.00;51.50;;;;;;5250287;22;20057;-84
2021/04/01 14:51:31;;;;;;;4.72;1.20;;;21.80;52.20;;;;;;5045097;23;20050;-89
2021/04/01 14:54:01;;;;;;;4.70;1.10;;;21.80;51.70;;;;;;4992757;28;20033;-89
2021/04/01 14:56:28;;;;;;;4.45;1.25;;;21.70;50.90;;;;;;5000065;28;20033;-84
2021/04/01 14:58:58;;;;;;;4.32;0.90;;;21.80;50.40;;;;;;4974616;28;20499;-88
2021/04/01 15:01:26;;;;;;;4.32;1.20;;;21.90;50.30;;;;;;4970023;28;20362;-86
2021/04/01 15:03:52;;;;;;;5.70;1.10;;;22.00;50.50;;;;;;5004112;28;20102;-88
2021/04/01 15:06:18;;;;;;;4.85;1.35;;;21.90;49.80;;;;;;4998955;28;20101;-84
2021/04/01 15:08:44;;;;;;;5.88;1.50;;;21.80;49.40;;;;;;4984115;28;20157;-86
2021/04/01 15:11:10;;;;;;;7.15;1.90;;;21.50;50.10;;;;;;5003249;28;20026;-86
2021/04/01 15:13:37;;;;;;;5.75;1.63;;;21.30;50.70;;;;;;4993240;28;20026;-89
2021/04/01 15:16:05;;;;;;;5.05;1.70;;;21.10;51.00;;;;;;4995891;28;20026;-86
2021/04/01 15:18:30;;;;;;;6.63;1.30;;;21.00;51.20;;;;;;4999043;28;20022;-86
2021/04/01 15:20:57;;;;;;;4.93;1.42;;;20.80;51.80;;;;;;5006296;28;20026;-87
2021/04/01 15:23:24;;;;;;;5.35;1.30;;;20.40;52.10;;;;;;5011176;28;20041;-87
2021/04/01 15:25:50;;;;;;;6.20;1.20;;;19.90;51.70;;;;;;4995652;28;20049;-86
2021/04/01 15:28:16;;;;;;;6.10;1.98;;;19.30;52.40;;;;;;4992787;28;20023;-87
2021/04/01 15:30:42;;;;;;;7.32;1.50;;;18.90;52.90;;;;;;4991894;28;20124;-85
2021/04/01 15:33:08;;;;;;;4.50;1.20;;;18.50;53.70;;;;;;5010286;28;20040;-85
2021/04/01 15:35:34;;;;;;;6.50;1.77;;;18.20;55.50;;;;;;4993540;28;20026;-87
2021/04/01 15:38:00;;;;;;;4.90;1.70;;;18.20;56.90;;;;;;4991557;28;20034;-86
2021/04/01 15:40:26;;;;;;;10.05;1.92;;;18.20;56.60;;;;;;5019768;23;20030;-85
2021/04/01 15:43:13;;;;;;;9.57;2.03;;;18.00;55.90;;;;;;5050023;22;20061;-83
2021/04/01 15:45:39;;;;;;;7.30;1.88;;;17.90;56.70;;;;;;5021461;28;20811;-85
2021/04/01 15:48:06;;;;;;;3.47;1.30;;;17.60;57.10;;;;;;5013761;28;20022;-87
2021/04/01 15:50:32;;;;;;;5.72;1.42;;;17.40;57.80;;;;;;5039306;28;20037;-88
2021/04/01 15:52:58;;;;;;;6.47;1.65;;;17.40;57.90;;;;;;5012638;28;20137;-90
2021/04/01 15:55:24;;;;;;;8.38;2.50;;;17.30;57.50;;;;;;5013023;28;20033;-89
2021/04/01 15:57:50;;;;;;;10.23;1.90;;;17.10;58.10;;;;;;4997281;28;20706;-89
2021/04/01 16:00:16;;;;;;;5.78;1.50;;;16.80;57.70;;;;;;5006867;28;20022;-90
2021/04/01 16:02:42;;;;;;;6.20;1.50;;;16.70;58.10;;;;;;4996037;28;20069;-89
2021/04/01 16:05:09;;;;;;;7.03;1.65;;;16.50;58.90;;;;;;5000182;28;20060;-89
2021/04/01 16:07:35;;;;;;;6.32;1.10;;;16.50;60.10;;;;;;5012346;28;20045;-87
2021/04/01 16:10:00;;;;;;;8.35;1.80;;;16.40;59.50;;;;;;5013077;28;20052;-90
2021/04/01 16:12:27;;;;;;;8.02;2.45;;;16.30;59.70;;;;;;5015380;28;20767;-88
2021/04/01 16:14:54;;;;;;;7.82;1.30;;;16.20;59.60;;;;;;5014679;28;20034;-90
2021/04/01 16:17:21;;;;;;;6.63;1.50;;;16.10;59.90;;;;;;5012843;28;20029;-89
2021/04/01 16:19:47;;;;;;;5.10;1.38;;;16.00;60.00;;;;;;5040107;23;20050;-92
2021/04/01 16:22:12;;;;;;;7.22;1.30;;;15.90;61.30;;;;;;4986893;28;20396;-89
2021/04/01 16:30:22;;;;;;;6.43;1.48;;;15.70;60.80;;;;;;5092129;23;20057;-86
2021/04/01 16:32:54;;;;;;;6.75;1.50;;;15.70;60.40;;;;;;5187905;22;20039;-87
2021/04/01 16:35:23;;;;;;;8.02;2.05;;;15.60;60.50;;;;;;5013005;28;20033;-87
2021/04/01 16:37:52;;;;;;;8.63;2.03;;;15.50;60.90;;;;;;4974510;28;20519;-84
2021/04/01 16:40:19;;;;;;;6.32;1.70;;;15.40;60.80;;;;;;4992285;28;20030;-88
2021/04/01 16:42:47;;;;;;;6.18;1.48;;;15.30;61.40;;;;;;4997168;28;20046;-87
2021/04/01 16:47:39;;;;;;;7.60;1.75;;;15.10;61.10;;;;;;5186703;23;20041;-89
2021/04/01 16:50:25;;;;;;;7.45;1.85;;;15.00;61.90;;;;;;5028850;28;20028;-87
2021/04/01 16:53:02;;;;;;;5.28;1.92;;;14.90;61.80;;;;;;5018520;28;20488;-90
2021/04/01 16:55:31;;;;;;;7.13;1.98;;;14.80;63.20;;;;;;5012258;28;20029;-89
2021/04/01 16:57:57;;;;;;;6.10;1.60;;;14.70;63.20;;;;;;5031783;28;20025;-90
2021/04/01 17:00:24;;;;;;;7.30;1.83;;;14.60;63.80;;;;;;5089939;23;20435;-86
2021/04/01 17:03:10;;;;;;;7.05;1.55;;;14.60;63.80;;;;;;5035304;28;20047;-90
2021/04/01 17:05:36;;;;;;;8.20;1.85;;;14.40;64.20;;;;;;5012974;28;20029;-90
2021/04/01 17:08:11;;;;;;;7.82;1.90;;;14.40;64.30;;;;;;5022738;28;20036;-86
2021/04/01 17:10:49;;;;;;;7.50;2.13;;;14.30;63.80;;;;;;5025839;28;20141;-84
2021/04/01 17:15:49;;;;;;;6.40;1.30;;;14.10;63.80;;;;;;5032510;28;20049;-89
2021/04/01 17:18:22;;;;;;;5.95;1.48;;;14.00;63.00;;;;;;5027145;28;20078;-85
2021/04/01 17:20:53;;;;;;;7.40;1.55;;;13.80;63.00;;;;;;5019796;28;20112;-85
2021/04/01 17:23:23;;;;;;;6.50;1.45;;;13.80;63.30;;;;;;5018969;28;20886;-88
2021/04/01 17:25:52;;;;;;;6.75;1.90;;;13.70;63.80;;;;;;5021653;28;20439;-91
2021/04/01 17:28:17;;;;;;;10.45;1.95;;;13.60;63.80;;;;;;5029229;28;20017;-86
2021/04/01 17:30:44;;;;;;;6.18;1.70;;;13.50;64.00;;;;;;5018630;28;20017;-89
2021/04/01 17:33:10;;;;;;;6.20;1.67;;;13.50;64.50;;;;;;5039840;28;20069;-90
2021/04/01 17:35:36;;;;;;;5.30;2.03;;;13.40;65.00;;;;;;5027856;28;20031;-89
2021/04/01 17:38:06;;;;;;;6.10;1.45;;;13.30;65.40;;;;;;5035760;28;20021;-92
2021/04/01 17:40:35;;;;;;;6.45;2.17;;;13.20;66.00;;;;;;5022438;28;20117;-89
2021/04/01 17:43:01;;;;;;;5.97;1.50;;;13.10;66.30;;;;;;5009498;28;20052;-88
2021/04/01 17:45:27;;;;;;;6.95;1.52;;;13.00;66.60;;;;;;5029072;28;20025;-89
2021/04/01 17:47:53;;;;;;;8.13;1.80;;;13.00;67.10;;;;;;5011138;28;20079;-86
2021/04/01 17:50:19;;;;;;;8.10;1.70;;;12.90;67.50;;;;;;5010897;28;20052;-88
2021/04/01 17:52:44;;;;;;;8.77;1.80;;;12.90;67.90;;;;;;5030252;28;20511;-89
2021/04/01 17:55:13;;;;;;;7.15;1.52;;;12.80;68.30;;;;;;5011413;28;20380;-88
2021/04/01 17:57:46;;;;;;;9.00;1.90;;;12.70;68.30;;;;;;5018683;28;20025;-85
2021/04/01 18:24:40;;;;;;;6.82;2.03;;;11.90;73.10;;;;;;5014730;28;20430;-89
2021/04/01 18:29:32;;;;;;;7.20;1.90;;;11.60;75.70;;;;;;5010030;28;20074;-90
2021/04/01 18:32:01;;;;;;;7.85;1.83;;;11.50;76.30;;;;;;5022724;23;20144;-91
2021/04/01 18:34:32;;;;;;;4.45;1.50;;;11.50;77.20;;;;;;4999653;28;20082;-90
2021/04/01 18:37:11;;;;;;;6.40;1.67;;;11.40;77.70;;;;;;5016189;28;20022;-91
2021/04/01 18:39:58;;;;;;;5.57;1.83;;;11.30;78.60;;;;;;5046544;23;20041;-86
2021/04/01 18:42:26;;;;;;;5.18;1.52;;;11.20;78.80;;;;;;5021665;28;20033;-88
2021/04/01 18:44:56;;;;;;;3.72;1.30;;;11.10;79.50;;;;;;5021589;28;20148;-85
2021/04/01 18:47:34;;;;;;;6.00;1.60;;;11.00;80.20;;;;;;5023467;28;20140;-87
2021/04/01 18:50:01;;;;;;;7.63;1.80;;;11.00;80.70;;;;;;5021045;28;20033;-89
2021/04/01 18:52:32;;;;;;;4.13;1.52;;;10.90;81.40;;;;;;5021071;28;20030;-89
2021/04/01 19:00:08;;;;;;;5.68;1.63;;;10.60;83.50;;;;;;5036631;28;20049;-88
2021/04/01 19:02:35;;;;;;;3.95;1.70;;;10.50;84.60;;;;;;5019806;28;20033;-90
2021/04/01 19:05:12;;;;;;;5.68;1.80;;;10.50;85.30;;;;;;5030426;28;20025;-90
2021/04/01 19:07:53;;;;;;;5.60;1.90;;;10.40;85.80;;;;;;5018736;28;20021;-92
2021/04/01 19:10:26;;;;;;;6.55;2.13;;;10.30;86.00;;;;;;5018810;28;20784;-90
2021/04/01 19:24:46;;;;;;;7.40;1.95;;;9.90;89.60;;;;;;5055792;28;20082;-91